createdAt,value
2018-04-16T00:01:13.375Z,12.41
2018-04-16T00:03:40.785Z,12.41
2018-04-16T00:06:08.197Z,12.31
2018-04-16T00:08:35.601Z,12.30
2018-04-16T00:11:03.005Z,12.22
2018-04-16T00:13:30.410Z,12.19
2018-04-16T00:15:57.809Z,12.13
2018-04-16T00:18:25.217Z,12.16
2018-04-16T00:20:52.600Z,12.13
2018-04-16T00:23:20.002Z,12.21
2018-04-16T00:25:47.402Z,12.21
2018-04-16T00:28:14.809Z,12.20
2018-04-16T00:30:42.210Z,12.12
2018-04-16T00:33:15.221Z,12.03
2018-04-16T00:35:48.354Z,11.82
2018-04-16T00:38:21.330Z,11.64
2018-04-16T00:40:54.430Z,11.56
2018-04-16T00:43:27.405Z,11.57
2018-04-16T00:46:00.468Z,11.58
2018-04-16T00:48:33.653Z,11.56
2018-04-16T00:54:18.809Z,11.53
2018-04-16T00:56:51.939Z,11.52
2018-04-16T00:59:24.963Z,11.49
2018-04-16T01:01:57.976Z,11.57
2018-04-16T01:04:30.926Z,11.53
2018-04-16T01:07:03.960Z,11.53
2018-04-16T01:09:36.921Z,11.54
2018-04-16T01:12:10.201Z,11.46
2018-04-16T01:14:43.252Z,11.32
2018-04-16T01:17:16.312Z,11.15
2018-04-16T01:22:50.488Z,11.08
2018-04-16T01:25:23.458Z,11.00
2018-04-16T01:27:56.442Z,11.08
2018-04-16T01:30:29.455Z,11.08
2018-04-16T01:33:02.415Z,11.22
2018-04-16T01:38:40.079Z,11.67
2018-04-16T01:41:13.185Z,11.75
2018-04-16T01:43:46.212Z,11.82
2018-04-16T01:46:19.183Z,11.87
2018-04-16T01:52:06.365Z,12.00
2018-04-16T01:57:41.520Z,12.05
2018-04-16T02:00:14.517Z,12.09
2018-04-16T02:02:47.432Z,12.06
2018-04-16T02:05:20.485Z,12.18
2018-04-16T02:07:53.536Z,12.16
2018-04-16T02:10:26.477Z,12.20
2018-04-16T02:12:59.737Z,12.23
2018-04-16T02:15:32.881Z,12.28
2018-04-16T02:18:05.997Z,12.28
2018-04-16T02:20:38.992Z,12.34
2018-04-16T02:23:11.948Z,12.36
2018-04-16T02:25:45.055Z,12.33
2018-04-16T02:28:18.130Z,12.35
2018-04-16T02:30:51.181Z,12.30
2018-04-16T02:33:24.298Z,12.14
2018-04-16T02:35:57.315Z,12.15
2018-04-16T02:41:35.661Z,12.10
2018-04-16T02:44:08.777Z,12.19
2018-04-16T02:46:41.957Z,12.15
2018-04-16T02:49:14.960Z,12.17
2018-04-16T02:51:47.905Z,12.23
2018-04-16T02:54:21.037Z,12.24
2018-04-16T02:56:54.312Z,12.22
2018-04-16T02:59:27.350Z,12.18
2018-04-16T03:02:00.525Z,11.94
2018-04-16T03:04:33.769Z,11.89
2018-04-16T03:07:06.741Z,11.83
2018-04-16T03:09:39.877Z,11.95
2018-04-16T03:12:12.944Z,12.07
2018-04-16T03:17:49.674Z,12.05
2018-04-16T03:20:22.825Z,11.96
2018-04-16T03:22:55.872Z,11.94
2018-04-16T03:25:28.859Z,11.88
2018-04-16T03:28:01.967Z,11.84
2018-04-16T03:30:35.061Z,11.83
2018-04-16T03:36:10.211Z,11.94
2018-04-16T03:38:43.158Z,11.93
2018-04-16T03:41:16.086Z,11.82
2018-04-16T03:43:49.237Z,11.79
2018-04-16T03:46:22.190Z,11.63
2018-04-16T03:48:55.222Z,11.63
2018-04-16T03:51:34.336Z,11.51
2018-04-16T03:54:01.741Z,11.28
2018-04-16T03:56:29.165Z,11.25
2018-04-16T03:58:56.561Z,11.39
2018-04-16T04:01:23.961Z,11.43
2018-04-16T04:03:51.358Z,11.51
2018-04-16T04:06:18.770Z,11.52
2018-04-16T04:08:46.165Z,11.63
2018-04-16T04:11:13.593Z,11.54
2018-04-16T04:13:41.071Z,11.59
2018-04-16T04:16:08.457Z,11.60
2018-04-16T04:18:35.865Z,11.66
2018-04-16T04:21:03.257Z,11.74
2018-04-16T04:26:42.310Z,11.64
2018-04-16T04:29:21.757Z,11.64
2018-04-16T04:31:49.227Z,11.67
2018-04-16T04:34:16.643Z,11.56
2018-04-16T04:36:44.043Z,11.57
2018-04-16T04:39:11.442Z,11.50
2018-04-16T04:41:38.833Z,11.52
2018-04-16T04:44:06.237Z,11.51
2018-04-16T04:46:33.661Z,11.43
2018-04-16T04:49:01.136Z,11.59
2018-04-16T04:51:28.536Z,11.55
2018-04-16T04:53:56.033Z,11.49
2018-04-16T04:56:23.453Z,11.59
2018-04-16T04:58:50.876Z,11.57
2018-04-16T05:01:18.294Z,11.64
2018-04-16T05:03:45.702Z,11.57
2018-04-16T05:06:13.089Z,11.62
2018-04-16T05:08:40.499Z,11.69
2018-04-16T05:11:07.894Z,11.61
2018-04-16T05:13:35.303Z,11.40
2018-04-16T05:16:02.709Z,11.24
2018-04-16T05:18:30.201Z,11.24
2018-04-16T05:20:57.644Z,11.18
2018-04-16T05:23:25.099Z,11.17
2018-04-16T05:25:52.488Z,11.20
2018-04-16T05:28:19.892Z,11.25
2018-04-16T05:30:47.284Z,11.20
2018-04-16T05:33:14.689Z,11.34
2018-04-16T05:35:42.085Z,11.50
2018-04-16T05:38:09.498Z,11.63
2018-04-16T05:40:36.984Z,11.61
2018-04-16T05:43:04.447Z,11.79
2018-04-16T05:45:31.842Z,11.94
2018-04-16T05:48:00.241Z,12.13
2018-04-16T05:50:27.642Z,12.25
2018-04-16T05:52:55.057Z,12.34
2018-04-16T05:55:22.550Z,12.34
2018-04-16T05:57:49.949Z,12.39
2018-04-16T06:00:17.351Z,12.50
2018-04-16T06:02:44.750Z,12.65
2018-04-16T06:05:12.148Z,12.75
2018-04-16T06:07:39.658Z,12.86
2018-04-16T06:10:07.078Z,13.01
2018-04-16T06:12:34.457Z,13.06
2018-04-16T06:15:01.875Z,13.17
2018-04-16T06:17:29.284Z,13.34
2018-04-16T06:19:56.684Z,13.51
2018-04-16T06:22:24.072Z,13.78
2018-04-16T06:24:51.474Z,14.33
2018-04-16T06:27:18.988Z,15.04
2018-04-16T06:29:46.378Z,15.81
2018-04-16T06:32:13.887Z,16.75
2018-04-16T06:34:41.337Z,17.80
2018-04-16T06:37:08.728Z,18.79
2018-04-16T06:39:36.131Z,19.59
2018-04-16T06:42:03.610Z,20.49
2018-04-16T06:44:31.061Z,21.43
2018-04-16T06:46:58.453Z,22.38
2018-04-16T06:49:25.874Z,22.87
2018-04-16T06:51:53.332Z,22.86
2018-04-16T06:54:20.801Z,23.05
2018-04-16T06:56:48.181Z,22.76
2018-04-16T06:59:15.617Z,22.71
2018-04-16T07:01:43.018Z,22.30
2018-04-16T07:04:10.544Z,22.69
2018-04-16T07:06:37.923Z,23.07
2018-04-16T07:09:06.949Z,22.86
2018-04-16T07:11:34.413Z,22.74
2018-04-16T07:14:01.887Z,22.51
2018-04-16T07:16:29.286Z,22.10
2018-04-16T07:18:56.691Z,21.33
2018-04-16T07:21:24.099Z,21.04
2018-04-16T07:23:51.593Z,20.79
2018-04-16T07:26:19.054Z,20.37
2018-04-16T07:28:46.473Z,20.31
2018-04-16T07:31:13.878Z,20.50
2018-04-16T07:33:41.292Z,21.10
2018-04-16T07:36:08.795Z,21.78
2018-04-16T07:38:36.220Z,22.52
2018-04-16T07:41:03.616Z,22.93
2018-04-16T07:43:31.050Z,23.46
2018-04-16T07:45:58.449Z,23.86
2018-04-16T07:48:26.356Z,24.18
2018-04-16T07:50:54.259Z,24.49
2018-04-16T07:53:21.662Z,24.42
2018-04-16T07:55:49.121Z,25.00
2018-04-16T07:58:16.534Z,25.67
2018-04-16T08:00:43.937Z,26.24
2018-04-16T08:03:11.421Z,26.68
2018-04-16T08:05:38.877Z,26.83
2018-04-16T08:08:06.277Z,26.97
2018-04-16T08:10:33.803Z,27.32
2018-04-16T08:13:01.208Z,27.24
2018-04-16T08:15:28.609Z,27.88
2018-04-16T08:17:56.012Z,27.62
2018-04-16T08:20:23.518Z,28.13
2018-04-16T08:22:50.975Z,28.48
2018-04-16T08:25:18.428Z,28.73
2018-04-16T08:27:45.824Z,28.97
2018-04-16T08:30:13.232Z,29.08
2018-04-16T08:32:40.625Z,28.95
2018-04-16T08:35:08.020Z,29.06
2018-04-16T08:37:35.413Z,29.17
2018-04-16T08:40:02.871Z,29.47
2018-04-16T08:42:30.325Z,29.74
2018-04-16T08:44:57.781Z,29.76
2018-04-16T08:47:25.182Z,29.92
2018-04-16T08:49:52.601Z,29.95
2018-04-16T08:52:20.077Z,30.12
2018-04-16T08:54:47.489Z,30.50
2018-04-16T08:57:14.889Z,30.20
2018-04-16T08:59:42.292Z,29.98
2018-04-16T09:02:09.681Z,29.22
2018-04-16T09:04:37.089Z,28.59
2018-04-16T09:07:04.485Z,28.04
2018-04-16T09:09:31.965Z,28.07
2018-04-16T09:11:59.404Z,27.42
2018-04-16T09:14:26.804Z,27.47
2018-04-16T09:16:54.209Z,27.12
2018-04-16T09:19:21.702Z,26.68
2018-04-16T09:21:49.141Z,26.44
2018-04-16T09:24:16.597Z,26.60
2018-04-16T09:26:44.002Z,26.74
2018-04-16T09:29:11.433Z,26.94
2018-04-16T09:31:38.879Z,27.01
2018-04-16T09:34:06.273Z,27.09
2018-04-16T09:36:33.780Z,27.08
2018-04-16T09:39:01.176Z,27.04
2018-04-16T09:41:28.608Z,26.81
2018-04-16T09:43:55.989Z,26.90
2018-04-16T09:46:23.389Z,26.53
2018-04-16T09:48:50.891Z,26.42
2018-04-16T09:51:18.347Z,26.53
2018-04-16T09:53:45.738Z,26.58
2018-04-16T09:56:13.147Z,26.79
2018-04-16T09:58:40.602Z,26.38
2018-04-16T10:01:13.769Z,26.42
2018-04-16T10:03:41.161Z,26.40
2018-04-16T10:06:08.563Z,26.18
2018-04-16T10:08:35.964Z,26.00
2018-04-16T10:11:03.427Z,26.10
2018-04-16T10:13:30.837Z,26.22
2018-04-16T10:15:58.334Z,26.19
2018-04-16T10:18:25.792Z,26.03
2018-04-16T10:20:53.184Z,26.20
2018-04-16T10:23:20.587Z,26.53
2018-04-16T10:25:47.994Z,26.08
2018-04-16T10:28:15.622Z,25.89
2018-04-16T10:30:43.992Z,25.90
2018-04-16T10:33:11.389Z,26.12
2018-04-16T10:35:38.796Z,25.51
2018-04-16T10:38:06.267Z,25.62
2018-04-16T10:40:33.726Z,25.71
2018-04-16T10:43:01.130Z,25.66
2018-04-16T10:45:28.538Z,25.64
2018-04-16T10:47:55.933Z,25.58
2018-04-16T10:50:23.334Z,24.89
2018-04-16T10:52:50.725Z,24.85
2018-04-16T10:55:18.128Z,25.17
2018-04-16T10:57:45.524Z,24.84
2018-04-16T11:00:12.972Z,25.30
2018-04-16T11:02:40.375Z,25.31
2018-04-16T11:05:08.766Z,24.76
2018-04-16T11:07:36.165Z,24.81
2018-04-16T11:10:03.609Z,24.72
2018-04-16T11:12:31.014Z,25.12
2018-04-16T11:14:58.437Z,24.82
2018-04-16T11:17:25.909Z,24.44
2018-04-16T11:19:53.348Z,24.57
2018-04-16T11:22:20.757Z,24.85
2018-04-16T11:24:48.157Z,24.71
2018-04-16T11:27:15.618Z,24.74
2018-04-16T11:29:43.004Z,25.19
2018-04-16T11:32:10.429Z,25.36
2018-04-16T11:34:37.893Z,25.57
2018-04-16T11:37:05.328Z,25.52
2018-04-16T11:39:32.801Z,25.46
2018-04-16T11:42:01.199Z,25.79
2018-04-16T11:44:28.589Z,26.25
2018-04-16T11:46:55.990Z,25.84
2018-04-16T11:49:23.374Z,25.73
2018-04-16T11:51:50.773Z,25.79
2018-04-16T11:54:18.172Z,25.51
2018-04-16T11:56:45.619Z,25.56
2018-04-16T11:59:13.078Z,25.25
2018-04-16T12:01:40.489Z,25.29
2018-04-16T12:04:07.881Z,25.42
2018-04-16T12:06:35.283Z,25.45
2018-04-16T12:09:02.669Z,25.01
2018-04-16T12:11:30.252Z,25.07
2018-04-16T12:13:57.650Z,24.76
2018-04-16T12:16:25.047Z,24.52
2018-04-16T12:18:52.500Z,24.39
2018-04-16T12:21:20.014Z,24.34
2018-04-16T12:23:47.489Z,24.30
2018-04-16T12:26:14.887Z,24.12
2018-04-16T12:28:42.273Z,24.18
2018-04-16T12:31:09.670Z,23.96
2018-04-16T12:33:37.072Z,23.93
2018-04-16T12:36:04.485Z,23.39
2018-04-16T12:38:31.890Z,23.44
2018-04-16T12:40:59.293Z,23.42
2018-04-16T12:43:27.674Z,23.02
2018-04-16T12:45:55.078Z,22.97
2018-04-16T12:48:22.535Z,23.14
2018-04-16T12:50:49.943Z,23.55
2018-04-16T12:53:17.337Z,23.74
2018-04-16T12:55:44.806Z,23.86
2018-04-16T12:58:13.185Z,23.45
2018-04-16T13:00:40.646Z,23.80
2018-04-16T13:03:08.049Z,23.80
2018-04-16T13:05:35.457Z,23.29
2018-04-16T13:08:02.862Z,23.51
2018-04-16T13:10:30.262Z,23.53
2018-04-16T13:12:57.661Z,23.75
2018-04-16T13:15:25.073Z,24.25
2018-04-16T13:17:52.473Z,24.38
2018-04-16T13:20:19.900Z,24.47
2018-04-16T13:22:47.296Z,24.80
2018-04-16T13:25:14.800Z,25.14
2018-04-16T13:27:42.492Z,24.81
2018-04-16T13:30:10.813Z,24.67
2018-04-16T13:32:38.210Z,24.41
2018-04-16T13:35:05.606Z,24.23
2018-04-16T13:37:33.117Z,23.80
2018-04-16T13:40:00.518Z,23.46
2018-04-16T13:42:27.918Z,23.37
2018-04-16T13:44:55.385Z,22.72
2018-04-16T13:47:22.837Z,22.89
2018-04-16T13:49:51.225Z,22.69
2018-04-16T13:52:18.634Z,22.89
2018-04-16T13:54:46.024Z,22.27
2018-04-16T13:57:13.511Z,21.58
2018-04-16T13:59:40.896Z,21.64
2018-04-16T14:02:08.298Z,21.43
2018-04-16T14:04:35.693Z,21.43
2018-04-16T14:07:03.126Z,21.67
2018-04-16T14:09:30.581Z,21.53
2018-04-16T14:11:58.103Z,21.63
2018-04-16T14:14:25.429Z,21.87
2018-04-16T14:16:52.833Z,22.07
2018-04-16T14:19:20.305Z,22.24
2018-04-16T14:21:47.761Z,22.34
2018-04-16T14:24:15.156Z,22.45
2018-04-16T14:26:42.558Z,22.74
2018-04-16T14:29:09.949Z,22.71
2018-04-16T14:31:37.400Z,22.43
2018-04-16T14:34:04.801Z,22.73
2018-04-16T14:36:32.212Z,22.86
2018-04-16T14:38:59.609Z,22.58
2018-04-16T14:41:27.108Z,22.45
2018-04-16T14:43:54.505Z,22.12
2018-04-16T14:46:21.904Z,22.29
2018-04-16T14:48:49.294Z,22.10
2018-04-16T14:51:16.737Z,21.98
2018-04-16T14:53:44.199Z,21.86
2018-04-16T14:56:11.601Z,21.78
2018-04-16T14:58:39.004Z,21.40
2018-04-16T15:01:06.469Z,21.64
2018-04-16T15:03:33.916Z,21.75
2018-04-16T15:06:01.278Z,21.61
2018-04-16T15:08:28.737Z,21.63
2018-04-16T15:10:56.194Z,21.78
2018-04-16T15:13:23.584Z,21.53
2018-04-16T15:15:50.969Z,21.38
2018-04-16T15:18:18.374Z,21.12
2018-04-16T15:20:45.837Z,21.10
2018-04-16T15:23:14.201Z,21.05
2018-04-16T15:25:41.784Z,21.13
2018-04-16T15:28:09.186Z,21.06
2018-04-16T15:30:36.586Z,21.13
2018-04-16T15:33:04.024Z,21.28
2018-04-16T15:35:31.490Z,21.22
2018-04-16T15:37:58.890Z,21.08
2018-04-16T15:40:26.281Z,20.92
2018-04-16T15:42:53.756Z,20.79
2018-04-16T15:45:21.154Z,20.78
2018-04-16T15:47:48.549Z,20.46
2018-04-16T15:50:15.961Z,20.65
2018-04-16T15:52:43.377Z,20.45
2018-04-16T15:55:10.785Z,20.26
2018-04-16T15:57:38.421Z,20.49
2018-04-16T16:00:06.834Z,20.66
2018-04-16T16:02:34.432Z,20.53
2018-04-16T16:05:01.835Z,20.57
2018-04-16T16:07:29.262Z,20.47
2018-04-16T16:09:56.660Z,20.14
2018-04-16T16:12:24.153Z,20.17
2018-04-16T16:14:51.639Z,19.70
2018-04-16T16:17:19.045Z,19.64
2018-04-16T16:19:46.446Z,19.78
2018-04-16T16:22:13.863Z,19.67
2018-04-16T16:24:41.268Z,19.72
2018-04-16T16:27:08.671Z,19.67
2018-04-16T16:29:36.169Z,19.65
2018-04-16T16:32:03.574Z,19.45
2018-04-16T16:34:30.985Z,19.55
2018-04-16T16:36:58.388Z,19.59
2018-04-16T16:39:25.777Z,18.92
2018-04-16T16:41:53.192Z,18.65
2018-04-16T16:44:20.590Z,18.62
2018-04-16T16:46:48.065Z,18.57
2018-04-16T16:49:15.465Z,18.56
2018-04-16T16:51:42.861Z,18.23
2018-04-16T16:54:10.416Z,18.36
2018-04-16T16:56:37.802Z,18.42
2018-04-16T16:59:05.276Z,18.23
2018-04-16T17:01:32.682Z,18.19
2018-04-16T17:04:00.086Z,17.81
2018-04-16T17:06:27.490Z,17.91
2018-04-16T17:08:54.887Z,17.90
2018-04-16T17:11:22.285Z,17.97
2018-04-16T17:13:49.819Z,17.73
2018-04-16T17:16:17.200Z,17.91
2018-04-16T17:18:44.600Z,17.97
2018-04-16T17:21:12.002Z,17.82
2018-04-16T17:23:39.411Z,17.77
2018-04-16T17:26:06.893Z,17.63
2018-04-16T17:28:34.297Z,17.62
2018-04-16T17:31:01.800Z,17.29
2018-04-16T17:33:29.220Z,17.08
2018-04-16T17:35:56.713Z,16.93
2018-04-16T17:38:24.171Z,17.06
2018-04-16T17:40:51.571Z,16.91
2018-04-16T17:43:18.968Z,16.86
2018-04-16T17:45:46.361Z,16.70
2018-04-16T17:48:13.835Z,16.87
2018-04-16T17:50:41.206Z,16.80
2018-04-16T17:53:08.606Z,16.82
2018-04-16T17:55:36.061Z,16.95
2018-04-16T17:58:03.478Z,16.84
2018-04-16T18:00:30.903Z,16.73
2018-04-16T18:02:58.319Z,16.64
2018-04-16T18:05:25.785Z,16.47
2018-04-16T18:07:53.213Z,16.44
2018-04-16T18:10:20.593Z,16.42
2018-04-16T18:12:47.997Z,16.25
2018-04-16T18:15:15.406Z,16.16
2018-04-16T18:17:42.841Z,16.11
2018-04-16T18:20:10.253Z,16.25
2018-04-16T18:22:37.657Z,16.19
2018-04-16T18:25:05.053Z,16.21
2018-04-16T18:27:32.473Z,16.17
2018-04-16T18:29:59.948Z,16.10
2018-04-16T18:32:27.366Z,16.20
2018-04-16T18:34:54.749Z,16.18
2018-04-16T18:37:22.147Z,16.13
2018-04-16T18:39:49.573Z,16.15
2018-04-16T18:42:16.985Z,16.16
2018-04-16T18:44:44.408Z,15.79
2018-04-16T18:47:11.795Z,15.64
2018-04-16T18:49:39.198Z,15.64
2018-04-16T18:52:06.662Z,15.90
2018-04-16T18:54:34.077Z,15.76
2018-04-16T18:57:01.465Z,15.74
2018-04-16T18:59:28.870Z,15.45
2018-04-16T19:01:56.276Z,15.22
2018-04-16T19:04:23.750Z,15.04
2018-04-16T19:06:51.157Z,14.95
2018-04-16T19:09:18.553Z,14.93
2018-04-16T19:11:46.021Z,14.76
2018-04-16T19:14:13.422Z,14.85
2018-04-16T19:16:40.821Z,14.83
2018-04-16T19:19:08.265Z,15.00
2018-04-16T19:21:41.358Z,15.21
2018-04-16T19:24:08.787Z,15.51
2018-04-16T19:26:36.179Z,15.67
2018-04-16T19:29:03.628Z,15.83
2018-04-16T19:31:31.080Z,15.86
2018-04-16T19:34:04.087Z,15.90
2018-04-16T19:36:31.550Z,15.76
2018-04-16T19:38:58.949Z,15.74
2018-04-16T19:41:26.457Z,15.36
2018-04-16T19:43:53.842Z,15.64
2018-04-16T19:46:21.257Z,15.66
2018-04-16T19:48:54.349Z,15.74
2018-04-16T19:51:21.671Z,15.82
2018-04-16T19:53:49.158Z,15.62
2018-04-16T19:59:22.673Z,15.23
2018-04-16T20:01:55.773Z,15.14
2018-04-16T20:04:23.171Z,14.82
2018-04-16T20:06:50.557Z,14.69
2018-04-16T20:09:17.963Z,14.35
2018-04-16T20:11:45.384Z,14.24
2018-04-16T20:14:12.785Z,14.17
2018-04-16T20:16:40.198Z,13.97
2018-04-16T20:19:07.628Z,13.94
2018-04-16T20:21:35.033Z,13.92
2018-04-16T20:24:02.425Z,13.79
2018-04-16T20:26:29.871Z,13.83
2018-04-16T20:28:57.260Z,13.81
2018-04-16T20:31:24.662Z,13.77
2018-04-16T20:33:52.107Z,13.77
2018-04-16T20:36:19.551Z,13.84
2018-04-16T20:38:47.017Z,13.82
2018-04-16T20:41:14.459Z,13.83
2018-04-16T20:43:41.861Z,13.93
2018-04-16T20:46:09.269Z,14.10
2018-04-16T20:48:36.666Z,14.09
2018-04-16T20:51:04.094Z,13.97
2018-04-16T20:53:31.550Z,13.86
2018-04-16T20:55:58.944Z,13.74
2018-04-16T20:58:26.349Z,13.55
2018-04-16T21:00:53.754Z,13.29
2018-04-16T21:03:21.137Z,13.44
2018-04-16T21:05:48.542Z,13.30
2018-04-16T21:08:16.030Z,13.13
2018-04-16T21:10:43.425Z,13.18
2018-04-16T21:13:10.847Z,13.11
2018-04-16T21:15:38.253Z,12.98
2018-04-16T21:18:05.751Z,13.08
2018-04-16T21:20:33.153Z,13.17
2018-04-16T21:23:00.561Z,13.32
2018-04-16T21:25:27.962Z,13.40
2018-04-16T21:27:55.400Z,13.28
2018-04-16T21:30:22.811Z,13.31
2018-04-16T21:32:50.221Z,13.26
2018-04-16T21:35:17.693Z,13.29
2018-04-16T21:37:45.093Z,13.37
2018-04-16T21:40:12.490Z,13.47
2018-04-16T21:42:39.897Z,13.36
2018-04-16T21:45:07.362Z,13.38
2018-04-16T21:47:34.767Z,13.36
2018-04-16T21:50:02.282Z,13.22
2018-04-16T21:52:29.674Z,13.14
2018-04-16T21:54:57.068Z,13.12
2018-04-16T21:57:24.540Z,12.94
2018-04-16T21:59:51.946Z,12.98
2018-04-16T22:02:19.342Z,12.94
2018-04-16T22:04:46.750Z,12.72
2018-04-16T22:07:14.137Z,12.53
2018-04-16T22:09:41.590Z,12.56
2018-04-16T22:12:09.105Z,12.65
2018-04-16T22:14:36.498Z,12.74
2018-04-16T22:17:03.902Z,12.59
2018-04-16T22:19:31.361Z,12.64
2018-04-16T22:21:58.746Z,12.61
2018-04-16T22:24:26.159Z,12.67
2018-04-16T22:26:53.623Z,12.37
2018-04-16T22:29:21.013Z,12.52
2018-04-16T22:31:48.405Z,12.58
2018-04-16T22:34:15.797Z,12.75
2018-04-16T22:36:43.194Z,12.74
2018-04-16T22:39:10.581Z,12.77
2018-04-16T22:41:37.997Z,12.82
2018-04-16T22:44:05.414Z,12.82
2018-04-16T22:46:32.820Z,12.85
2018-04-16T22:49:00.225Z,12.84
2018-04-16T22:51:27.657Z,12.84
2018-04-16T22:53:55.065Z,12.83
2018-04-16T22:56:22.466Z,12.72
2018-04-16T22:58:49.857Z,12.68
2018-04-16T23:01:17.271Z,12.49
2018-04-16T23:03:44.655Z,12.56
2018-04-16T23:06:12.101Z,12.55
2018-04-16T23:08:39.493Z,12.57
2018-04-16T23:11:06.911Z,12.52
2018-04-16T23:13:34.373Z,12.44
2018-04-16T23:16:01.771Z,12.41
2018-04-16T23:18:29.166Z,12.20
2018-04-16T23:20:56.564Z,11.99
2018-04-16T23:23:23.995Z,12.08
2018-04-16T23:25:51.385Z,12.15
2018-04-16T23:28:18.804Z,11.85
2018-04-16T23:30:46.267Z,11.92
2018-04-16T23:33:13.723Z,11.99
2018-04-16T23:35:41.164Z,12.00
2018-04-16T23:38:08.640Z,11.88
2018-04-16T23:40:36.041Z,11.83
2018-04-16T23:43:03.436Z,11.77
2018-04-16T23:45:31.184Z,11.77
2018-04-16T23:47:58.577Z,11.69
2018-04-16T23:50:25.977Z,11.67
2018-04-16T23:52:53.369Z,11.69
2018-04-16T23:55:20.793Z,11.63
2018-04-16T23:57:48.190Z,11.59
